Time;durP1;ratioP1;P1;durP2;ratioP2;P2;SDS_P1;SDS_P2;PMS_P1;PMS_P2;Temp;Humidity;BMP_temperature;BMP_pressure;BME280_temperature;BME280_humidity;BME280_pressure;Samples;Min_cycle;Max_cycle;Signal;HPM_P1;HPM_P2
2023/04/04 00:00:30;;;;;;;0.50;0.50;;;;;;;1.90;47.02;102105.13;5044047;28;20033;-61
2023/04/04 00:02:55;;;;;;;0.50;0.50;;;;;;;1.86;47.70;102101.50;5044733;28;20423;-61
2023/04/04 00:05:21;;;;;;;0.70;0.70;;;;;;;1.84;48.07;102101.44;5044737;28;20022;-60
2023/04/04 00:07:46;;;;;;;0.50;0.50;;;;;;;1.83;48.24;102104.78;5044397;28;20080;-62
2023/04/04 00:10:12;;;;;;;0.50;0.50;;;;;;;1.82;48.31;102092.75;5044902;28;20025;-60
2023/04/04 00:12:37;;;;;;;0.50;0.50;;;;;;;1.89;48.19;102100.78;5044516;28;20025;-61
2023/04/04 00:15:03;;;;;;;0.50;0.50;;;;;;;1.91;48.25;102097.53;5044758;28;20017;-60
2023/04/04 00:17:29;;;;;;;0.60;0.60;;;;;;;1.88;48.36;102089.69;5044645;28;20100;-60
2023/04/04 00:19:56;;;;;;;0.60;0.60;;;;;;;1.89;48.55;102086.31;5044969;28;20472;-60
2023/04/04 00:22:21;;;;;;;0.50;0.50;;;;;;;1.90;48.32;102098.31;5044932;28;20523;-60
2023/04/04 00:24:47;;;;;;;0.60;0.60;;;;;;;1.89;48.38;102083.75;5044765;28;20025;-60
2023/04/04 00:27:13;;;;;;;0.60;0.60;;;;;;;1.93;48.27;102079.69;5044713;28;20100;-60
2023/04/04 00:29:38;;;;;;;0.50;0.50;;;;;;;2.02;48.17;102089.53;5027049;28;20022;-60
2023/04/04 00:32:04;;;;;;;0.50;0.50;;;;;;;2.07;48.27;102082.97;5044552;28;20033;-61
2023/04/04 00:34:29;;;;;;;0.50;0.50;;;;;;;2.12;48.35;102085.78;5043845;28;20067;-60
2023/04/04 00:36:55;;;;;;;0.50;0.50;;;;;;;2.12;48.27;102076.44;5044287;28;20041;-60
2023/04/04 00:39:22;;;;;;;0.50;0.50;;;;;;;2.08;48.29;102077.06;5044538;28;20044;-60
2023/04/04 00:41:48;;;;;;;0.50;0.50;;;;;;;2.08;48.29;102071.94;5044233;28;20311;-60
2023/04/04 00:44:14;;;;;;;0.60;0.60;;;;;;;2.10;48.44;102073.78;5044677;28;20029;-59
2023/04/04 00:46:40;;;;;;;0.50;0.50;;;;;;;2.09;48.33;102066.03;5044992;28;20021;-60
2023/04/04 00:49:05;;;;;;;0.50;0.50;;;;;;;2.10;48.35;102066.09;5046042;28;20032;-61
2023/04/04 00:51:31;;;;;;;0.55;0.55;;;;;;;2.12;48.27;102062.72;5048601;28;20024;-60
2023/04/04 00:53:56;;;;;;;0.60;0.60;;;;;;;2.13;48.40;102060.25;5046444;28;20033;-61
2023/04/04 00:56:22;;;;;;;0.50;0.50;;;;;;;2.12;48.01;102055.03;5048435;28;20025;-60
2023/04/04 00:58:48;;;;;;;0.60;0.60;;;;;;;2.04;48.18;102050.41;5048203;28;20105;-60
2023/04/04 01:01:13;;;;;;;1.58;1.58;;;;;;;2.00;48.19;102045.03;5048400;28;20037;-61
2023/04/04 01:03:40;;;;;;;0.50;0.50;;;;;;;1.93;48.29;102042.13;5048295;28;20041;-60
2023/04/04 01:06:07;;;;;;;0.50;0.50;;;;;;;1.80;48.26;102027.78;5045162;28;20029;-60
2023/04/04 01:08:35;;;;;;;0.60;0.60;;;;;;;1.79;48.22;102031.13;5048174;28;20029;-61
2023/04/04 01:11:00;;;;;;;0.60;0.60;;;;;;;1.76;48.29;102030.97;5048082;28;20096;-61
2023/04/04 01:13:26;;;;;;;0.60;0.60;;;;;;;1.72;48.26;102029.94;5047918;28;20048;-59
2023/04/04 01:15:52;;;;;;;0.60;0.60;;;;;;;1.61;49.21;102028.47;5048025;28;20075;-60
2023/04/04 01:18:20;;;;;;;0.50;0.50;;;;;;;1.60;48.69;102035.25;5047945;28;20067;-59
2023/04/04 01:21:13;;;;;;;0.60;0.60;;;;;;;1.59;49.08;102035.19;5048138;28;20030;-60
2023/04/04 01:24:00;;;;;;;0.57;0.57;;;;;;;1.55;48.94;102038.38;5039145;28;20034;-60
2023/04/04 01:26:27;;;;;;;0.50;0.50;;;;;;;1.45;49.98;102032.72;5048079;28;20024;-59
2023/04/04 01:28:53;;;;;;;0.60;0.60;;;;;;;1.46;49.73;102031.06;5047618;28;20081;-60
2023/04/04 01:31:26;;;;;;;0.50;0.50;;;;;;;1.47;49.72;102036.25;5047859;28;20021;-60
2023/04/04 01:34:31;;;;;;;0.60;0.60;;;;;;;1.45;49.76;102042.09;5047791;28;20112;-59
2023/04/04 01:37:09;;;;;;;0.52;0.52;;;;;;;1.46;49.38;102036.19;5047853;28;20026;-60
2023/04/04 01:39:40;;;;;;;0.60;0.60;;;;;;;1.43;49.64;102031.78;5029694;28;20144;-60
2023/04/04 01:42:08;;;;;;;0.75;0.75;;;;;;;1.40;49.53;102034.16;5047685;28;20576;-60
2023/04/04 01:44:34;;;;;;;0.60;0.60;;;;;;;1.38;49.38;102028.06;5029857;28;20043;-59
2023/04/04 01:47:00;;;;;;;0.60;0.60;;;;;;;1.36;49.75;102034.78;5047507;28;20052;-60
2023/04/04 01:49:25;;;;;;;0.50;0.50;;;;;;;1.40;49.28;102030.72;5047735;28;20025;-60
2023/04/04 01:51:51;;;;;;;0.60;0.60;;;;;;;1.38;49.82;102027.19;5045922;28;20116;-60
2023/04/04 01:54:18;;;;;;;0.60;0.60;;;;;;;1.41;49.28;102025.69;5045984;28;20075;-59
2023/04/04 01:56:44;;;;;;;0.60;0.60;;;;;;;1.41;49.44;102023.13;5047258;28;20021;-60
2023/04/04 01:59:10;;;;;;;0.60;0.60;;;;;;;1.44;49.33;102027.53;5046450;28;20028;-59
2023/04/04 02:01:35;;;;;;;0.70;0.70;;;;;;;1.43;49.53;102016.41;5044881;28;20026;-60
2023/04/04 02:04:01;;;;;;;0.50;0.50;;;;;;;1.41;50.01;102012.88;5046764;28;20117;-60
2023/04/04 02:06:28;;;;;;;0.60;0.60;;;;;;;1.43;50.54;102013.84;5046823;28;20034;-60
2023/04/04 02:08:53;;;;;;;0.50;0.50;;;;;;;1.45;50.77;102012.25;5047075;28;20029;-59
2023/04/04 02:11:21;;;;;;;0.60;0.60;;;;;;;1.50;50.93;102009.06;5046823;28;20032;-60
2023/04/04 02:13:47;;;;;;;0.50;0.50;;;;;;;1.51;51.38;102006.59;5045016;28;20033;-61
2023/04/04 02:16:12;;;;;;;0.50;0.50;;;;;;;1.53;51.45;102006.69;5046806;28;20129;-61
2023/04/04 02:18:38;;;;;;;0.60;0.60;;;;;;;1.55;51.92;101999.97;5046820;28;20091;-59
2023/04/04 02:21:03;;;;;;;0.50;0.50;;;;;;;1.47;52.06;101982.50;5046700;28;20040;-59
2023/04/04 02:23:29;;;;;;;0.52;0.52;;;;;;;1.61;52.66;101993.50;5046973;28;20048;-59
2023/04/04 02:25:54;;;;;;;0.50;0.50;;;;;;;1.60;52.32;101986.63;5046468;28;20031;-60
2023/04/04 02:28:20;;;;;;;0.50;0.50;;;;;;;1.65;52.29;101991.97;5046647;28;20121;-59
2023/04/04 02:30:45;;;;;;;0.50;0.50;;;;;;;1.66;52.38;101983.50;5046591;28;20033;-59
2023/04/04 02:33:11;;;;;;;0.50;0.50;;;;;;;1.65;52.42;101978.28;5046138;28;20026;-60
2023/04/04 02:35:36;;;;;;;0.50;0.50;;;;;;;1.65;52.46;101986.88;5045724;28;20104;-60
2023/04/04 02:38:02;;;;;;;0.60;0.60;;;;;;;1.65;52.53;101976.63;5045092;28;20074;-60
2023/04/04 02:40:27;;;;;;;0.50;0.50;;;;;;;1.64;52.58;101974.88;5046025;28;20029;-60
2023/04/04 02:42:52;;;;;;;0.60;0.60;;;;;;;1.67;52.53;101969.91;5046211;28;20088;-60
2023/04/04 02:45:18;;;;;;;0.50;0.50;;;;;;;1.68;52.15;101974.22;5042678;28;20329;-60
2023/04/04 02:47:49;;;;;;;0.50;0.50;;;;;;;1.71;51.88;101968.41;5044918;28;20055;-60
2023/04/04 02:50:15;;;;;;;0.53;0.53;;;;;;;1.58;51.76;101947.25;5045450;28;20038;-61
2023/04/04 02:52:40;;;;;;;0.50;0.50;;;;;;;1.64;51.74;101954.38;5045992;28;20490;-61
2023/04/04 02:55:07;;;;;;;0.50;0.50;;;;;;;1.63;52.32;101957.72;5046394;28;20021;-60
2023/04/04 02:57:32;;;;;;;0.70;0.70;;;;;;;1.64;52.37;101954.38;5046164;28;20029;-59
2023/04/04 02:59:58;;;;;;;0.57;0.57;;;;;;;1.63;52.63;101962.84;5046193;28;20545;-60
2023/04/04 03:02:24;;;;;;;0.57;0.57;;;;;;;1.65;53.25;101958.69;5028226;28;20040;-59
2023/04/04 03:04:50;;;;;;;0.60;0.60;;;;;;;1.53;53.38;101935.00;5046194;28;20076;-60
2023/04/04 03:07:16;;;;;;;0.50;0.50;;;;;;;1.63;53.38;101952.59;5045801;28;20033;-60
2023/04/04 03:09:44;;;;;;;0.60;0.60;;;;;;;1.60;53.46;101952.44;5046010;28;20025;-59
2023/04/04 03:12:10;;;;;;;0.50;0.50;;;;;;;1.61;53.72;101951.66;5045943;28;20579;-61
2023/04/04 03:14:35;;;;;;;0.50;0.50;;;;;;;1.59;53.93;101940.47;5045774;28;20029;-60
2023/04/04 03:17:02;;;;;;;0.60;0.60;;;;;;;1.50;54.80;101922.94;5045978;28;20029;-61
2023/04/04 03:19:27;;;;;;;0.60;0.60;;;;;;;1.63;55.28;101946.63;5045534;28;20025;-60
2023/04/04 03:21:52;;;;;;;0.50;0.50;;;;;;;1.62;55.46;101938.06;5028006;28;20067;-61
2023/04/04 03:24:18;;;;;;;0.60;0.60;;;;;;;1.66;55.36;101942.53;5045653;28;20055;-60
2023/04/04 03:26:43;;;;;;;0.50;0.50;;;;;;;1.69;55.22;101934.16;5045551;28;20044;-60
2023/04/04 03:29:09;;;;;;;0.50;0.50;;;;;;;1.73;55.38;101938.63;5045346;28;20025;-60
2023/04/04 03:31:34;;;;;;;0.50;0.50;;;;;;;1.78;55.83;101933.75;5045712;28;20028;-60
2023/04/04 03:34:01;;;;;;;0.50;0.50;;;;;;;1.77;56.26;101927.75;5045646;28;20045;-60
2023/04/04 03:36:26;;;;;;;0.50;0.50;;;;;;;1.80;56.37;101930.47;5044538;28;20021;-61
2023/04/04 03:38:52;;;;;;;0.50;0.50;;;;;;;1.83;56.77;101929.75;5043924;28;20028;-60
2023/04/04 03:41:17;;;;;;;0.50;0.50;;;;;;;1.81;57.00;101931.34;5045197;28;20052;-59
2023/04/04 03:43:43;;;;;;;0.50;0.50;;;;;;;1.79;57.27;101932.97;5044519;28;20134;-61
2023/04/04 03:46:09;;;;;;;0.50;0.50;;;;;;;1.72;57.34;101924.97;5045280;28;20085;-61
2023/04/04 03:48:35;;;;;;;0.50;0.50;;;;;;;1.70;57.36;101918.88;5045183;28;20089;-61
2023/04/04 03:51:02;;;;;;;0.50;0.50;;;;;;;1.65;57.58;101922.84;5045360;28;20030;-60
2023/04/04 03:53:28;;;;;;;0.50;0.50;;;;;;;1.61;57.60;101920.94;5045204;28;20017;-61
2023/04/04 03:55:55;;;;;;;0.57;0.57;;;;;;;1.59;57.87;101922.53;5045230;28;20025;-61
2023/04/04 03:58:21;;;;;;;0.50;0.50;;;;;;;1.62;57.96;101925.25;5044706;28;20030;-59
2023/04/04 04:00:47;;;;;;;0.60;0.60;;;;;;;1.61;57.93;101920.94;5045116;28;20253;-60
2023/04/04 04:03:12;;;;;;;0.50;0.50;;;;;;;1.57;58.34;101908.75;5027453;28;20036;-59
2023/04/04 04:05:38;;;;;;;0.50;0.50;;;;;;;1.57;58.65;101908.75;5044939;28;20029;-61
2023/04/04 04:08:04;;;;;;;0.60;0.60;;;;;;;1.65;58.74;101914.28;5045141;28;20028;-64
2023/04/04 04:10:29;;;;;;;0.60;0.60;;;;;;;1.70;59.01;101912.84;5027037;28;20033;-62
2023/04/04 04:12:55;;;;;;;0.60;0.60;;;;;;;1.74;59.09;101917.34;5043204;28;20029;-60
2023/04/04 04:15:21;;;;;;;0.60;0.60;;;;;;;1.75;58.87;101907.97;5044429;28;20029;-61
2023/04/04 04:17:46;;;;;;;0.52;0.52;;;;;;;1.76;58.82;101905.50;5044942;28;20392;-61
2023/04/04 04:20:12;;;;;;;0.50;0.50;;;;;;;1.74;58.75;101894.31;5044850;28;20026;-60
2023/04/04 04:22:37;;;;;;;0.50;0.50;;;;;;;1.86;58.26;101909.41;5044706;28;20091;-60
2023/04/04 04:25:03;;;;;;;0.52;0.52;;;;;;;1.88;58.02;101902.69;5044247;28;20467;-62
2023/04/04 04:27:29;;;;;;;0.55;0.55;;;;;;;1.93;57.50;101901.25;5044646;28;20403;-60
2023/04/04 04:29:55;;;;;;;0.50;0.50;;;;;;;1.99;57.56;101900.69;5044413;28;20018;-59
2023/04/04 04:32:21;;;;;;;0.60;0.60;;;;;;;2.04;57.98;101898.34;5044671;28;20049;-61
2023/04/04 04:34:46;;;;;;;0.50;0.50;;;;;;;2.10;57.57;101898.66;5026788;28;20025;-61
2023/04/04 04:37:12;;;;;;;0.50;0.50;;;;;;;2.14;57.28;101898.00;5026805;28;20061;-61
2023/04/04 04:39:37;;;;;;;0.50;0.50;;;;;;;2.16;57.26;101896.41;5026319;28;20029;-61
2023/04/04 04:42:03;;;;;;;0.50;0.50;;;;;;;2.22;56.84;101899.28;5044544;28;20065;-60
2023/04/04 04:44:28;;;;;;;0.60;0.60;;;;;;;2.21;56.72;101894.97;5044811;28;20035;-60
2023/04/04 04:46:54;;;;;;;0.50;0.50;;;;;;;2.25;56.71;101895.13;5044848;28;20029;-61
2023/04/04 04:49:19;;;;;;;0.50;0.50;;;;;;;2.26;56.66;101894.31;5044685;28;20108;-60
2023/04/04 04:51:45;;;;;;;0.50;0.50;;;;;;;2.27;56.75;101896.09;5044817;28;20071;-61
2023/04/04 04:54:10;;;;;;;0.50;0.50;;;;;;;2.21;57.15;101891.50;5025341;28;20025;-61
2023/04/04 04:56:36;;;;;;;0.50;0.50;;;;;;;2.24;57.06;101904.47;5044662;28;20040;-62
2023/04/04 04:59:02;;;;;;;0.50;0.50;;;;;;;2.26;56.96;101899.44;5044528;28;20538;-60
2023/04/04 05:01:28;;;;;;;0.60;0.60;;;;;;;2.21;57.09;101896.66;5026621;28;20068;-60
2023/04/04 05:03:53;;;;;;;0.50;0.50;;;;;;;2.13;57.46;101893.69;5026741;28;20052;-61
2023/04/04 05:06:18;;;;;;;0.50;0.50;;;;;;;2.09;57.35;101899.47;5044832;28;20032;-63
2023/04/04 05:08:44;;;;;;;0.50;0.50;;;;;;;2.05;57.28;101898.44;5026691;28;20029;-61
2023/04/04 05:11:09;;;;;;;0.52;0.52;;;;;;;2.08;57.13;101898.59;5044432;28;20018;-60
2023/04/04 05:13:35;;;;;;;0.50;0.50;;;;;;;2.05;57.61;101890.75;5044036;28;20075;-61
2023/04/04 05:16:00;;;;;;;0.50;0.50;;;;;;;2.02;57.66;101894.84;5044326;28;20085;-61
2023/04/04 05:18:26;;;;;;;0.50;0.50;;;;;;;2.02;57.90;101898.28;5044441;28;20108;-61
2023/04/04 05:20:54;;;;;;;0.50;0.50;;;;;;;2.02;58.37;101897.38;5044189;28;20044;-61
2023/04/04 05:23:20;;;;;;;0.50;0.50;;;;;;;1.94;58.93;101891.88;5044209;28;20096;-61
2023/04/04 05:25:52;;;;;;;0.50;0.50;;;;;;;1.91;59.31;101896.84;5044156;28;20026;-63
2023/04/04 05:28:18;;;;;;;0.68;0.68;;;;;;;1.82;60.34;101904.94;5044254;28;20041;-63
2023/04/04 05:30:43;;;;;;;0.60;0.60;;;;;;;1.72;60.85;101904.47;5044198;28;20025;-62
2023/04/04 05:33:09;;;;;;;1.58;1.50;;;;;;;1.64;61.21;101900.63;5026385;28;20025;-62
2023/04/04 05:35:34;;;;;;;0.50;0.50;;;;;;;1.62;61.33;101904.78;5042729;28;20028;-62
2023/04/04 05:38:00;;;;;;;0.50;0.50;;;;;;;1.66;61.25;101893.88;5028894;28;20037;-61
2023/04/04 05:40:25;;;;;;;0.50;0.50;;;;;;;1.63;61.20;101890.31;5047549;28;20032;-62
2023/04/04 05:42:55;;;;;;;0.60;0.60;;;;;;;1.68;60.95;101889.72;5047255;28;20084;-62
2023/04/04 05:45:21;;;;;;;0.57;0.57;;;;;;;1.80;60.87;101896.28;5047742;28;20104;-60
2023/04/04 05:47:46;;;;;;;0.52;0.52;;;;;;;1.80;60.54;101886.06;5029861;28;20025;-62
2023/04/04 05:50:11;;;;;;;0.50;0.50;;;;;;;1.84;60.60;101890.53;5047690;28;20021;-61
2023/04/04 05:52:37;;;;;;;0.60;0.60;;;;;;;1.94;60.34;101882.53;5047646;28;20029;-62
2023/04/04 05:55:02;;;;;;;0.60;0.60;;;;;;;2.01;60.18;101883.72;5047489;28;20025;-61
2023/04/04 05:57:28;;;;;;;0.50;0.50;;;;;;;2.07;59.94;101886.59;5029201;28;20025;-62
2023/04/04 05:59:53;;;;;;;0.60;0.60;;;;;;;2.14;59.93;101892.88;5047185;28;20087;-62
2023/04/04 06:02:19;;;;;;;0.50;0.50;;;;;;;2.20;59.93;101890.66;5047224;28;20027;-62
2023/04/04 06:04:44;;;;;;;0.50;0.50;;;;;;;2.32;59.91;101892.06;5047259;28;20029;-61
2023/04/04 06:07:10;;;;;;;0.52;0.52;;;;;;;2.29;59.78;101871.41;5047153;28;20029;-62
2023/04/04 06:09:35;;;;;;;0.50;0.50;;;;;;;2.29;60.05;101874.84;5046787;28;20025;-62
2023/04/04 06:12:03;;;;;;;0.50;0.50;;;;;;;2.40;59.79;101885.63;5047410;28;20510;-61
2023/04/04 06:14:29;;;;;;;0.50;0.50;;;;;;;2.48;59.65;101876.63;5029237;28;20068;-62
2023/04/04 06:16:55;;;;;;;0.50;0.50;;;;;;;2.53;59.63;101874.28;5029439;28;20025;-63
2023/04/04 06:19:21;;;;;;;0.50;0.50;;;;;;;2.58;59.59;101882.19;5046899;28;20063;-62
2023/04/04 06:21:46;;;;;;;0.50;0.50;;;;;;;2.54;59.51;101877.75;5029185;28;20029;-62
2023/04/04 06:24:12;;;;;;;0.60;0.60;;;;;;;2.55;59.39;101882.06;5047129;28;20029;-62
2023/04/04 06:26:37;;;;;;;0.60;0.60;;;;;;;2.51;59.64;101881.03;5046903;28;20035;-63
2023/04/04 06:29:03;;;;;;;0.60;0.60;;;;;;;2.57;59.60;101877.91;5046606;28;20021;-61
2023/04/04 06:31:29;;;;;;;0.50;0.50;;;;;;;2.56;59.72;101873.56;5046582;28;20074;-63
2023/04/04 06:33:55;;;;;;;0.50;0.50;;;;;;;2.59;59.63;101873.69;5029119;28;20112;-62
2023/04/04 06:36:20;;;;;;;0.50;0.50;;;;;;;2.65;59.73;101879.13;5046699;28;20021;-62
2023/04/04 06:38:46;;;;;;;0.50;0.50;;;;;;;2.63;59.73;101869.59;5046546;28;20021;-60
2023/04/04 06:41:11;;;;;;;0.50;0.50;;;;;;;2.61;59.68;101861.84;5046469;28;20025;-63
2023/04/04 06:43:37;;;;;;;0.50;0.50;;;;;;;2.65;59.87;101870.56;5045673;28;20157;-61
2023/04/04 06:46:03;;;;;;;0.50;0.50;;;;;;;2.65;60.07;101874.00;5045898;28;20104;-62
2023/04/04 06:48:28;;;;;;;0.52;0.52;;;;;;;2.65;60.38;101879.13;5046230;28;20041;-62
2023/04/04 06:50:53;;;;;;;0.50;0.50;;;;;;;2.64;60.60;101872.25;5046432;28;20026;-62
2023/04/04 06:53:19;;;;;;;0.50;0.50;;;;;;;2.68;60.99;101871.59;5046290;28;20045;-62
2023/04/04 06:55:44;;;;;;;0.50;0.50;;;;;;;2.63;61.05;101869.59;5046126;28;20032;-62
2023/04/04 06:58:10;;;;;;;0.60;0.60;;;;;;;2.60;61.30;101866.06;5026922;28;20030;-62
2023/04/04 07:00:35;;;;;;;0.50;0.50;;;;;;;2.67;61.48;101872.38;5046047;28;20057;-62
2023/04/04 07:03:01;;;;;;;0.50;0.50;;;;;;;2.65;61.64;101866.28;5046245;28;20033;-61
2023/04/04 07:05:27;;;;;;;0.50;0.50;;;;;;;2.63;62.11;101873.06;5028268;28;20025;-62
2023/04/04 07:07:53;;;;;;;0.60;0.60;;;;;;;2.66;62.45;101874.88;5046135;28;20022;-62
2023/04/04 07:10:20;;;;;;;0.50;0.50;;;;;;;2.59;62.69;101868.56;5046119;28;20009;-61
2023/04/04 07:12:45;;;;;;;0.50;0.50;;;;;;;2.61;62.97;101866.97;5045873;28;20025;-61
2023/04/04 07:15:11;;;;;;;0.50;0.50;;;;;;;2.60;63.31;101860.94;5028095;28;20044;-61
2023/04/04 07:17:38;;;;;;;0.50;0.50;;;;;;;2.68;63.54;101863.03;5045409;28;20025;-62
2023/04/04 07:20:05;;;;;;;0.50;0.50;;;;;;;2.73;63.53;101859.84;5028005;28;20076;-62
2023/04/04 07:22:30;;;;;;;0.50;0.50;;;;;;;2.81;63.53;101851.66;5045702;28;20029;-61
2023/04/04 07:24:55;;;;;;;1.52;1.42;;;;;;;2.87;63.64;101862.22;5045603;28;20081;-62
2023/04/04 07:27:21;;;;;;;0.50;0.50;;;;;;;2.95;63.58;101855.75;5045856;28;20018;-61
2023/04/04 07:29:46;;;;;;;23.85;2.58;;;;;;;3.20;63.31;101861.13;5044333;28;20036;-62
2023/04/04 07:32:12;;;;;;;0.50;0.50;;;;;;;3.29;63.09;101850.41;5045068;28;20094;-61
2023/04/04 07:34:37;;;;;;;0.50;0.50;;;;;;;3.38;63.18;101858.50;5045271;28;20041;-62
2023/04/04 07:37:03;;;;;;;0.50;0.50;;;;;;;3.39;63.30;101859.38;5027750;28;20021;-62
2023/04/04 07:39:28;;;;;;;2.35;2.15;;;;;;;3.52;63.21;101851.41;5045524;28;20017;-63
2023/04/04 07:41:54;;;;;;;0.50;0.50;;;;;;;3.50;63.14;101836.75;5045294;28;20428;-61
2023/04/04 07:44:19;;;;;;;0.50;0.50;;;;;;;3.67;62.98;101853.78;5045395;28;20453;-63
2023/04/04 07:46:45;;;;;;;0.50;0.50;;;;;;;3.83;63.05;101854.44;5027565;28;20029;-62
2023/04/04 07:49:11;;;;;;;0.50;0.50;;;;;;;3.96;62.96;101849.00;5045283;28;20021;-62
2023/04/04 07:51:38;;;;;;;0.50;0.50;;;;;;;4.14;62.75;101848.03;5044176;28;20025;-63
2023/04/04 07:54:04;;;;;;;1.00;1.00;;;;;;;4.46;62.63;101856.19;5045206;28;20029;-62
2023/04/04 07:56:29;;;;;;;0.50;0.50;;;;;;;4.68;62.35;101854.47;5045317;28;20376;-62
2023/04/04 07:58:55;;;;;;;0.50;0.50;;;;;;;4.79;61.73;101843.72;5044037;28;20048;-61
2023/04/04 08:01:20;;;;;;;0.50;0.50;;;;;;;4.92;61.88;101840.78;5045018;28;20380;-62
2023/04/04 08:03:46;;;;;;;0.50;0.50;;;;;;;5.16;62.00;101845.09;5044816;28;20066;-62
2023/04/04 08:06:12;;;;;;;4.63;4.22;;;;;;;5.42;62.13;101844.31;5044430;28;20021;-62
2023/04/04 08:08:37;;;;;;;0.50;0.50;;;;;;;5.68;61.82;101834.94;5027417;28;20028;-61
2023/04/04 08:11:03;;;;;;;0.50;0.50;;;;;;;5.85;61.34;101824.34;5027313;28;20017;-61
2023/04/04 08:13:28;;;;;;;0.50;0.50;;;;;;;6.08;61.31;101824.28;5044542;28;20025;-61
2023/04/04 08:15:53;;;;;;;0.40;0.40;;;;;;;6.45;60.84;101840.94;5045251;28;20108;-61
2023/04/04 08:18:19;;;;;;;0.50;0.50;;;;;;;6.50;59.79;101832.47;5045120;28;20443;-61
2023/04/04 08:20:45;;;;;;;0.50;0.50;;;;;;;6.43;59.53;101845.19;5044535;28;20055;-61
2023/04/04 08:23:11;;;;;;;0.50;0.50;;;;;;;6.36;59.46;101840.63;5045107;28;20040;-62
2023/04/04 08:25:38;;;;;;;0.45;0.45;;;;;;;6.31;59.14;101837.91;5044877;28;20052;-62
2023/04/04 08:28:04;;;;;;;0.45;0.45;;;;;;;6.23;59.30;101829.03;5044619;28;20029;-61
2023/04/04 08:30:30;;;;;;;0.80;0.80;;;;;;;6.14;59.23;101824.47;5044762;28;20017;-62
2023/04/04 08:32:56;;;;;;;0.45;0.45;;;;;;;6.11;59.35;101826.94;5045086;28;20022;-62
2023/04/04 08:35:21;;;;;;;0.50;0.50;;;;;;;6.09;59.00;101836.31;5026572;28;20121;-61
2023/04/04 08:37:47;;;;;;;0.50;0.50;;;;;;;5.97;59.64;101835.88;5044459;28;20026;-61
2023/04/04 08:40:13;;;;;;;0.50;0.50;;;;;;;6.07;59.49;101838.00;5044791;28;20017;-62
2023/04/04 08:42:40;;;;;;;0.50;0.50;;;;;;;6.14;59.54;101836.47;5044582;28;20065;-62
2023/04/04 08:45:11;;;;;;;0.45;0.45;;;;;;;6.19;59.70;101837.50;5044390;28;20025;-61
2023/04/04 08:47:37;;;;;;;0.40;0.40;;;;;;;6.47;60.11;101840.97;5026935;28;20037;-61
2023/04/04 08:50:07;;;;;;;0.50;0.50;;;;;;;6.73;59.96;101834.88;5044436;28;20104;-63
2023/04/04 08:52:34;;;;;;;0.40;0.40;;;;;;;7.10;59.91;101838.56;5044737;28;20032;-63
2023/04/04 08:55:01;;;;;;;0.50;0.50;;;;;;;7.35;59.72;101826.34;5043281;28;20113;-62
2023/04/04 08:57:27;;;;;;;0.50;0.50;;;;;;;7.75;59.60;101826.56;5044792;28;20025;-62
2023/04/04 08:59:53;;;;;;;0.43;0.43;;;;;;;8.23;58.83;101824.28;5044501;28;20495;-63
2023/04/04 09:02:24;;;;;;;0.40;0.40;;;;;;;9.24;58.66;101830.84;5024532;28;20025;-62
2023/04/04 09:04:52;;;;;;;0.50;0.50;;;;;;;10.13;56.45;101810.78;5026741;28;20030;-62
2023/04/04 09:07:19;;;;;;;0.40;0.40;;;;;;;10.87;55.99;101815.38;5044781;28;20033;-62
2023/04/04 09:09:46;;;;;;;0.40;0.40;;;;;;;11.70;55.24;101826.69;5045218;28;20102;-62
2023/04/04 09:12:13;;;;;;;0.40;0.40;;;;;;;12.63;52.35;101822.25;5048133;28;20028;-61
2023/04/04 09:14:40;;;;;;;0.50;0.50;;;;;;;13.91;50.82;101816.56;5047765;28;20041;-62
2023/04/04 09:17:09;;;;;;;0.40;0.40;;;;;;;14.23;49.12;101817.44;5030416;28;20017;-62
2023/04/04 09:19:34;;;;;;;0.40;0.40;;;;;;;14.05;47.30;101823.53;5048215;28;20025;-62
2023/04/04 09:22:00;;;;;;;0.32;0.32;;;;;;;14.24;46.37;101811.31;5048207;28;20088;-62
2023/04/04 09:24:40;;;;;;;0.30;0.30;;;;;;;14.86;46.04;101826.00;5030320;28;20018;-62
2023/04/04 09:27:08;;;;;;;0.30;0.30;;;;;;;15.59;44.95;101817.78;5048096;28;20026;-61
2023/04/04 09:29:33;;;;;;;0.30;0.30;;;;;;;15.90;42.86;101811.47;5029955;28;20385;-62
2023/04/04 09:31:59;;;;;;;0.30;0.30;;;;;;;16.56;41.46;101811.75;5048068;28;20023;-62
2023/04/04 09:34:27;;;;;;;1.48;1.42;;;;;;;17.65;42.93;101816.47;5047823;28;20056;-61
2023/04/04 09:36:53;;;;;;;0.30;0.30;;;;;;;17.64;39.95;101801.59;5047912;28;20021;-62
2023/04/04 09:39:19;;;;;;;0.30;0.30;;;;;;;17.13;40.87;101805.84;5047931;28;20201;-62
2023/04/04 09:41:45;;;;;;;0.20;0.20;;;;;;;17.10;40.55;101785.75;5047480;28;20105;-62
2023/04/04 09:44:12;;;;;;;0.30;0.30;;;;;;;17.39;40.47;101794.97;5047739;28;20049;-62
2023/04/04 09:46:38;;;;;;;0.20;0.20;;;;;;;17.81;41.33;101799.56;5047794;28;20095;-61
2023/04/04 09:49:04;;;;;;;0.30;0.30;;;;;;;17.79;39.25;101797.88;5046831;28;20029;-62
2023/04/04 09:51:37;;;;;;;0.20;0.20;;;;;;;17.55;37.83;101803.50;5047682;28;20081;-62
2023/04/04 09:54:05;;;;;;;1.02;1.02;;;;;;;18.05;38.77;101789.53;5046075;28;20044;-63
2023/04/04 09:56:33;;;;;;;0.20;0.20;;;;;;;18.36;39.29;101796.03;5047538;28;20114;-61
2023/04/04 09:58:59;;;;;;;0.20;0.20;;;;;;;18.90;39.12;101791.44;5047472;28;20028;-62
2023/04/04 10:01:26;;;;;;;0.20;0.20;;;;;;;19.44;39.25;101797.28;5047443;28;20035;-62
2023/04/04 10:03:53;;;;;;;0.20;0.20;;;;;;;20.24;39.09;101797.97;5047492;28;20026;-63
2023/04/04 10:06:20;;;;;;;0.20;0.20;;;;;;;20.74;37.23;101795.72;5047375;28;20457;-62
2023/04/04 10:08:45;;;;;;;0.20;0.20;;;;;;;21.12;36.70;101798.19;5047468;28;20057;-63
2023/04/04 10:11:11;;;;;;;0.40;0.40;;;;;;;20.75;34.72;101800.94;5047257;28;20024;-62
2023/04/04 10:13:42;;;;;;;0.20;0.20;;;;;;;20.26;35.26;101798.81;5047251;28;20392;-62
2023/04/04 10:16:09;;;;;;;0.20;0.20;;;;;;;20.37;35.33;101802.91;5047313;28;20028;-61
2023/04/04 10:18:35;;;;;;;0.20;0.20;;;;;;;20.41;34.89;101799.28;5046948;28;20038;-62
2023/04/04 10:21:04;;;;;;;0.20;0.20;;;;;;;20.21;34.19;101795.41;5046370;28;20051;-62
2023/04/04 10:23:30;;;;;;;0.30;0.30;;;;;;;19.80;33.19;101787.66;5047074;28;20026;-62
2023/04/04 10:25:57;;;;;;;0.20;0.20;;;;;;;19.62;33.06;101788.97;5029594;28;20030;-62
2023/04/04 10:28:24;;;;;;;1.85;1.75;;;;;;;19.48;32.60;101786.69;5046574;28;20062;-62
2023/04/04 10:31:20;;;;;;;0.20;0.20;;;;;;;19.27;32.88;101783.66;5046969;28;20025;-62
2023/04/04 10:34:06;;;;;;;0.20;0.20;;;;;;;18.41;33.98;101781.03;5046943;28;20052;-63
2023/04/04 10:36:43;;;;;;;0.20;0.20;;;;;;;18.01;33.10;101779.97;5046639;28;20021;-61
2023/04/04 10:39:39;;;;;;;0.77;0.77;;;;;;;17.95;33.11;101773.09;5046742;28;20098;-62
2023/04/04 10:42:06;;;;;;;0.90;0.90;;;;;;;17.76;32.57;101769.03;5044874;28;20045;-62
2023/04/04 10:44:36;;;;;;;0.20;0.20;;;;;;;17.22;33.79;101766.38;5046379;28;20030;-61
2023/04/04 10:47:18;;;;;;;0.30;0.30;;;;;;;16.88;33.29;101769.41;5046577;28;20030;-62
2023/04/04 10:49:45;;;;;;;0.30;0.30;;;;;;;16.70;32.29;101771.38;5046382;28;20452;-62
2023/04/04 10:52:12;;;;;;;0.20;0.20;;;;;;;16.59;32.43;101768.88;5046484;28;20089;-63
2023/04/04 10:54:40;;;;;;;0.20;0.20;;;;;;;16.73;32.88;101753.84;5046153;28;20025;-63
2023/04/04 10:57:06;;;;;;;0.30;0.30;;;;;;;17.19;32.49;101761.13;5046651;28;20081;-62
2023/04/04 10:59:31;;;;;;;0.30;0.30;;;;;;;17.04;28.87;101763.09;5046118;28;20060;-61
2023/04/04 11:02:01;;;;;;;0.30;0.30;;;;;;;16.46;29.04;101762.91;5046579;28;20103;-62
2023/04/04 11:04:32;;;;;;;0.30;0.30;;;;;;;16.44;29.25;101756.81;5026348;28;20048;-61
2023/04/04 11:07:15;;;;;;;0.43;0.43;;;;;;;16.07;28.50;101764.19;5046056;28;20021;-61
2023/04/04 11:09:54;;;;;;;0.30;0.30;;;;;;;15.74;29.80;101750.50;5046135;28;20344;-62
2023/04/04 11:12:32;;;;;;;0.30;0.30;;;;;;;16.34;27.48;101746.44;5044435;28;20036;-62
2023/04/04 11:15:08;;;;;;;0.30;0.30;;;;;;;15.84;28.62;101749.53;5045019;28;20040;-61
2023/04/04 11:17:58;;;;;;;0.30;0.30;;;;;;;16.16;29.72;101754.50;5028049;28;20100;-62
2023/04/04 11:20:33;;;;;;;0.30;0.30;;;;;;;17.12;30.11;101736.75;5045909;28;20030;-61
2023/04/04 11:23:13;;;;;;;0.30;0.30;;;;;;;18.47;30.04;101750.25;5045961;28;20480;-62
2023/04/04 11:25:55;;;;;;;0.30;0.30;;;;;;;19.29;28.23;101713.41;5044425;28;20030;-62
2023/04/04 11:28:33;;;;;;;1.13;1.02;;;;;;;19.18;27.46;101737.34;5045555;28;20021;-62
2023/04/04 11:31:15;;;;;;;0.30;0.30;;;;;;;18.04;29.33;101737.88;5027913;28;20049;-61